Sidney-Richland, MT

1:28 AM MDT on May 24, 2017 (GMT -0600)
Sidney-Richland Municipal

Weather History for KSDY - October, 2012

Change the Weather History Date:

Wednesday, October 3, 2012

  Actual Average Record
Temperature  
Mean Temperature 42 °F -  
Max Temperature 48 °F 66 °F 86 °F (1963)
Min Temperature 37 °F 38 °F 15 °F (1999)
Degree Days  
Heating Degree Days 22    
Moisture  
Dew Point 36 °F    
Average Humidity 83    
Maximum Humidity 93    
Minimum Humidity 62    
Precipitation  
Precipitation 0.71 in - - ()
Sea Level Pressure  
Sea Level Pressure 30.16 in    
Wind  
Wind Speed 13 mph (North)    
Max Wind Speed 20 mph    
Max Gust Speed 33 mph    
Visibility 10 miles    
Events      
Averages and records for this station are not official NWS values.
T = Trace of Precipitation, MM = Missing Value Source: NWS Daily Summary

Daily Weather History Graph

Daily Weather History Graph

Search for Another Location

Airport or City:

Trip Planner

Search our weather history database for the weather conditions in past years. The results will help you decide how hot, cold, wet, or windy it might be!

Date:

Astronomy

Oct. 03, 2012 Rise Set
Actual Time 6:59 AM MDT 6:30 PM MDT
Civil Twilight 6:28 AM MDT 7:01 PM MDT
Nautical Twilight 5:52 AM MDT 7:37 PM MDT
Astronomical Twilight 5:16 AM MDT 8:13 PM MDT
Moon 8:06 PM MDT (10/3) 10:42 AM MDT (10/3)
Length of Visible Light 12h 33m
Length of Day
11h 31m
Waning Gibbous, 88% of the Moon is Illuminated
Oct 3
Waning Gibbous
Oct 8
Last Quarter
Oct 15
New
Oct 21
First Quarter
Oct 29
Full

Hourly Weather History & Observations

Time (MDT) Temp. Windchill Dew Point Humidity Pressure Visibility Wind Dir Wind Speed Gust Speed Precip Events Conditions
12:15 AM 48.2 °F - 35.6 °F 62% 29.96 in 10.0 mi North 6.9 mph - N/A   Mostly Cloudy
12:35 AM 48.2 °F - 35.6 °F 62% 29.94 in 10.0 mi NNE 12.7 mph - N/A   Overcast
12:55 AM 46.4 °F 41.1 °F 35.6 °F 66% 29.96 in 10.0 mi North 11.5 mph - N/A   Overcast
1:15 AM 46.4 °F 41.1 °F 35.6 °F 66% 29.95 in 9.0 mi North 11.5 mph 33.4 mph 0.02 in   Overcast
1:35 AM 44.6 °F 37.2 °F 35.6 °F 71% 29.93 in 10.0 mi North 17.3 mph - 0.03 in   Overcast
1:55 AM 44.6 °F 38.1 °F 35.6 °F 71% 29.94 in 10.0 mi North 13.8 mph 17.3 mph 0.03 in   Overcast
2:15 AM 44.6 °F 38.4 °F 35.6 °F 71% 29.93 in 10.0 mi North 12.7 mph 18.4 mph 0.02 in   Overcast
2:35 AM 44.6 °F 37.4 °F 35.6 °F 71% 29.92 in 10.0 mi NNE 16.1 mph - 0.02 in   Mostly Cloudy
2:55 AM 44.6 °F 38.1 °F 35.6 °F 71% 29.92 in 10.0 mi North 13.8 mph - 0.02 in   Mostly Cloudy
3:15 AM 44.6 °F 37.8 °F 35.6 °F 71% 29.93 in 10.0 mi North 15.0 mph 25.3 mph N/A   Overcast
3:55 AM 42.8 °F 35.4 °F 35.6 °F 76% 29.96 in 10.0 mi North 15.0 mph 21.9 mph 0.03 in   Overcast
4:15 AM 42.8 °F 35.8 °F 35.6 °F 76% 29.98 in 10.0 mi North 13.8 mph - 0.03 in   Overcast
4:35 AM 42.8 °F 35.1 °F 37.4 °F 81% 29.99 in 10.0 mi North 16.1 mph - 0.03 in   Overcast
4:55 AM 42.8 °F 36.2 °F 37.4 °F 81% 29.99 in 10.0 mi North 12.7 mph - 0.03 in   Overcast
5:15 AM 42.8 °F 37.0 °F 37.4 °F 81% 29.99 in 10.0 mi NNE 10.4 mph 17.3 mph N/A   Overcast
5:35 AM 42.8 °F 36.2 °F 37.4 °F 81% 30.00 in 10.0 mi North 12.7 mph 20.7 mph N/A   Overcast
5:55 AM 42.8 °F 36.6 °F 35.6 °F 76% 30.03 in 10.0 mi NNE 11.5 mph - 0.02 in   Overcast
6:15 AM 41.0 °F 34.3 °F 37.4 °F 87% 30.01 in 9.0 mi North 11.5 mph - 0.07 in   Mostly Cloudy
6:35 AM 41.0 °F 33.9 °F 37.4 °F 87% 30.03 in 10.0 mi North 12.7 mph - 0.10 in   Overcast
6:55 AM - - - N/A% 30.03 in 10.0 mi North 18.4 mph - 0.14 in   Overcast
7:15 AM - - - N/A% 30.03 in 5.0 mi North 17.3 mph 23.0 mph 0.07 in   Overcast
7:35 AM 39.2 °F 32.5 °F 35.6 °F 87% 30.03 in 6.0 mi NNE 10.4 mph - 0.11 in   Overcast
8:15 AM 41.0 °F 35.8 °F 37.4 °F 87% 30.06 in 10.0 mi NNE 8.1 mph - 0.03 in   Overcast
9:15 AM 37.4 °F 28.9 °F 33.8 °F 87% 30.08 in 10.0 mi North 13.8 mph - 0.04 in   Overcast
9:35 AM 37.4 °F 29.3 °F 33.8 °F 87% 30.10 in 10.0 mi North 12.7 mph - N/A   Overcast
9:55 AM 37.4 °F 29.8 °F 35.6 °F 93% 30.13 in 10.0 mi North 11.5 mph - N/A   Overcast
10:15 AM 37.4 °F 29.8 °F 33.8 °F 87% 30.12 in 10.0 mi North 11.5 mph - N/A   Overcast
10:35 AM 39.2 °F 34.2 °F 35.6 °F 87% 30.11 in 10.0 mi North 6.9 mph - N/A   Overcast
10:55 AM 39.2 °F 32.5 °F 35.6 °F 87% 30.12 in 10.0 mi North 10.4 mph - 0.07 in   Overcast
11:15 AM 39.2 °F 33.0 °F 35.6 °F 87% 30.14 in 10.0 mi North 9.2 mph - N/A   Overcast
11:55 AM 41.0 °F 34.7 °F 37.4 °F 87% 30.17 in 10.0 mi North 10.4 mph - 0.02 in   Overcast
12:15 PM 41.0 °F 33.9 °F 35.6 °F 81% 30.16 in 10.0 mi North 12.7 mph - 0.02 in   Overcast
12:35 PM 41.0 °F 32.2 °F 35.6 °F 81% 30.16 in 10.0 mi North 18.4 mph 23.0 mph 0.04 in   Overcast
12:55 PM 39.2 °F 30.5 °F 35.6 °F 87% 30.16 in 10.0 mi North 16.1 mph 23.0 mph 0.05 in   Overcast
1:15 PM 41.0 °F 31.9 °F 37.4 °F 87% 30.17 in 10.0 mi North 19.6 mph 24.2 mph N/A   Overcast
1:35 PM 41.0 °F 34.3 °F 37.4 °F 87% 30.19 in 10.0 mi North 11.5 mph 16.1 mph N/A   Overcast
1:55 PM 41.0 °F 33.5 °F 35.6 °F 81% 30.19 in 10.0 mi North 13.8 mph - 0.01 in   Overcast
2:15 PM 41.0 °F 33.9 °F 37.4 °F 87% 30.20 in 10.0 mi North 12.7 mph 17.3 mph N/A   Overcast
2:35 PM 41.0 °F 32.8 °F 37.4 °F 87% 30.21 in 10.0 mi North 16.1 mph 23.0 mph N/A   Overcast
2:55 PM 41.0 °F 32.8 °F 37.4 °F 87% 30.22 in 10.0 mi North 16.1 mph - 0.01 in   Overcast
3:15 PM - - - N/A% 30.22 in 10.0 mi North 18.4 mph 24.2 mph 0.01 in   Mostly Cloudy
3:35 PM - - - N/A% 30.23 in 10.0 mi North 15.0 mph 19.6 mph 0.01 in   Overcast
3:55 PM 39.2 °F 30.5 °F 35.6 °F 87% 30.24 in 10.0 mi North 16.1 mph 20.7 mph 0.02 in   Overcast
4:15 PM 39.2 °F 29.6 °F 35.6 °F 87% 30.26 in 10.0 mi North 19.6 mph 24.2 mph 0.01 in   Overcast
4:35 PM 39.2 °F 30.5 °F 35.6 °F 87% 30.27 in 10.0 mi North 16.1 mph - 0.02 in   Overcast
4:55 PM 39.2 °F 30.5 °F 35.6 °F 87% 30.28 in 10.0 mi North 16.1 mph - 0.02 in   Overcast
5:15 PM 39.2 °F 30.5 °F 35.6 °F 87% 30.29 in 10.0 mi North 16.1 mph 24.2 mph 0.01 in   Overcast
5:35 PM 39.2 °F 30.5 °F 35.6 °F 87% 30.30 in 10.0 mi North 16.1 mph 21.9 mph 0.01 in   Mostly Cloudy
5:55 PM 39.2 °F 30.8 °F 35.6 °F 87% 30.31 in 10.0 mi North 15.0 mph - 0.01 in   Mostly Cloudy
6:15 PM 39.2 °F 30.5 °F 33.8 °F 81% 30.32 in 10.0 mi North 16.1 mph 21.9 mph N/A   Overcast
6:35 PM 39.2 °F 31.6 °F 35.6 °F 87% 30.33 in 10.0 mi North 12.7 mph - 0.01 in   Overcast
7:15 PM 37.4 °F 29.8 °F 35.6 °F 93% 30.35 in 10.0 mi North 11.5 mph - N/A   Overcast
7:35 PM 37.4 °F 27.8 °F 33.8 °F 87% 30.36 in 10.0 mi North 17.3 mph - 0.01 in   Overcast
7:55 PM 37.4 °F 28.9 °F 33.8 °F 87% 30.37 in 10.0 mi North 13.8 mph 19.6 mph 0.02 in   Overcast
8:15 PM 37.4 °F 28.9 °F 33.8 °F 87% 30.38 in 10.0 mi North 13.8 mph - N/A   Overcast
8:35 PM 37.4 °F 28.9 °F 33.8 °F 87% 30.38 in 10.0 mi North 13.8 mph - 0.01 in   Overcast
8:55 PM 37.4 °F 28.9 °F 35.6 °F 93% 30.39 in 10.0 mi North 13.8 mph - 0.01 in   Overcast
9:15 PM 37.4 °F 29.8 °F 35.6 °F 93% 30.39 in 10.0 mi North 11.5 mph - N/A   Overcast
9:35 PM 37.4 °F 29.3 °F 33.8 °F 87% 30.40 in 10.0 mi North 12.7 mph - 0.01 in   Overcast
9:55 PM 37.4 °F 29.8 °F 33.8 °F 87% 30.40 in 10.0 mi North 11.5 mph - 0.01 in   Overcast
10:15 PM 37.4 °F 30.3 °F 33.8 °F 87% 30.40 in 10.0 mi NNW 10.4 mph - N/A   Overcast
10:35 PM 37.4 °F 29.3 °F 33.8 °F 87% 30.40 in 10.0 mi NNW 12.7 mph - N/A   Overcast
10:55 PM 37.4 °F 30.8 °F 33.8 °F 87% 30.41 in 10.0 mi North 9.2 mph - N/A   Overcast
11:35 PM 37.4 °F 29.8 °F 33.8 °F 87% 30.41 in 10.0 mi North 11.5 mph - N/A   Overcast
11:55 PM 37.4 °F 30.3 °F 33.8 °F 87% 30.41 in 10.0 mi North 10.4 mph - N/A   Overcast